createdAt,value
2019-01-08T00:01:43.431Z,5.10
2019-01-08T00:04:16.331Z,5.20
2019-01-08T00:06:48.648Z,5.16
2019-01-08T00:09:20.185Z,5.08
2019-01-08T00:11:50.748Z,4.99
2019-01-08T00:14:21.548Z,5.08
2019-01-08T00:16:52.041Z,5.06
2019-01-08T00:19:22.436Z,5.08
2019-01-08T00:21:52.837Z,5.10
2019-01-08T00:24:23.131Z,5.06
2019-01-08T00:26:54.316Z,5.06
2019-01-08T00:29:24.764Z,5.01
2019-01-08T00:31:55.089Z,4.98
2019-01-08T00:34:25.933Z,5.05
2019-01-08T00:36:56.242Z,5.07
2019-01-08T00:39:27.020Z,5.16
2019-01-08T00:41:57.907Z,5.13
2019-01-08T00:44:28.302Z,5.21
2019-01-08T00:46:58.680Z,5.14
2019-01-08T00:49:29.522Z,5.19
2019-01-08T00:51:59.874Z,5.14
2019-01-08T00:54:30.337Z,5.11
2019-01-08T00:57:01.663Z,5.14
2019-01-08T00:59:32.594Z,5.11
2019-01-08T01:02:03.889Z,5.14
2019-01-08T01:04:34.251Z,5.03
2019-01-08T01:07:04.647Z,5.05
2019-01-08T01:09:35.016Z,4.97
2019-01-08T01:12:05.292Z,4.93
2019-01-08T01:14:36.168Z,4.86
2019-01-08T01:17:07.058Z,5.01
2019-01-08T01:19:37.409Z,5.02
2019-01-08T01:22:07.804Z,4.99
2019-01-08T01:24:38.196Z,4.97
2019-01-08T01:27:08.489Z,5.01
2019-01-08T01:29:38.898Z,5.06
2019-01-08T01:32:09.241Z,5.11
2019-01-08T01:34:39.651Z,5.11
2019-01-08T01:37:10.088Z,5.14
2019-01-08T01:39:40.499Z,5.12
2019-01-08T01:42:10.770Z,5.18
2019-01-08T01:44:41.881Z,5.22
2019-01-08T01:47:12.231Z,5.25
2019-01-08T01:49:42.579Z,5.16
2019-01-08T01:52:12.989Z,5.17
2019-01-08T01:54:43.310Z,5.09
2019-01-08T01:57:13.676Z,5.27
2019-01-08T01:59:44.426Z,5.31
2019-01-08T02:02:14.836Z,5.37
2019-01-08T02:04:45.235Z,5.18
2019-01-08T02:07:16.012Z,5.28
2019-01-08T02:09:46.308Z,5.25
2019-01-08T02:12:16.652Z,5.41
2019-01-08T02:14:47.205Z,5.48
2019-01-08T02:17:17.577Z,5.45
2019-01-08T02:19:47.899Z,5.34
2019-01-08T02:22:38.737Z,5.37
2019-01-08T02:25:09.016Z,5.31
2019-01-08T02:27:39.418Z,5.40
2019-01-08T02:30:10.367Z,5.38
2019-01-08T02:32:41.202Z,5.40
2019-01-08T02:35:11.572Z,5.54
2019-01-08T02:37:41.852Z,5.49
2019-01-08T02:40:12.222Z,5.61
2019-01-08T02:42:42.580Z,5.56
2019-01-08T02:45:12.863Z,5.65
2019-01-08T02:47:43.256Z,5.67
2019-01-08T02:50:13.652Z,5.65
2019-01-08T02:52:44.379Z,5.74
2019-01-08T02:55:14.733Z,5.72
2019-01-08T02:57:45.722Z,5.77
2019-01-08T03:00:16.056Z,5.93
2019-01-08T03:02:46.439Z,5.96
2019-01-08T03:05:16.818Z,6.03
2019-01-08T03:07:47.066Z,6.05
2019-01-08T03:10:17.448Z,5.99
2019-01-08T03:12:48.907Z,6.07
2019-01-08T03:15:19.346Z,6.05
2019-01-08T03:17:49.617Z,6.06
2019-01-08T03:20:20.081Z,6.16
2019-01-08T03:22:50.886Z,6.06
2019-01-08T03:25:21.577Z,6.09
2019-01-08T03:27:51.961Z,6.17
2019-01-08T03:30:22.336Z,6.14
2019-01-08T03:32:52.969Z,6.15
2019-01-08T03:35:23.334Z,6.15
2019-01-08T03:37:53.703Z,6.25
2019-01-08T03:40:24.053Z,6.16
2019-01-08T03:42:54.421Z,6.12
2019-01-08T03:45:24.700Z,6.09
2019-01-08T03:47:55.091Z,6.08
2019-01-08T03:50:25.394Z,6.03
2019-01-08T03:52:55.852Z,5.94
2019-01-08T03:55:26.885Z,5.95
2019-01-08T03:57:58.799Z,6.07
2019-01-08T04:00:29.519Z,6.03
2019-01-08T04:03:00.789Z,6.08
2019-01-08T04:05:31.597Z,6.06
2019-01-08T04:08:01.918Z,6.04
2019-01-08T04:10:35.256Z,6.00
2019-01-08T04:13:05.956Z,5.95
2019-01-08T04:15:36.303Z,5.93
2019-01-08T04:18:06.631Z,5.87
2019-01-08T04:20:37.490Z,5.89
2019-01-08T04:23:07.930Z,5.92
2019-01-08T04:25:38.233Z,5.96
2019-01-08T04:28:08.645Z,6.05
2019-01-08T04:30:38.914Z,6.01
2019-01-08T04:33:09.286Z,6.14
2019-01-08T04:35:39.676Z,6.16
2019-01-08T04:38:10.113Z,6.07
2019-01-08T04:40:40.844Z,6.07
2019-01-08T04:43:13.938Z,6.11
2019-01-08T04:45:44.280Z,6.15
2019-01-08T04:48:14.597Z,6.15
2019-01-08T04:50:45.003Z,6.21
2019-01-08T04:53:15.315Z,6.15
2019-01-08T04:56:18.354Z,6.14
2019-01-08T04:58:49.022Z,6.22
2019-01-08T05:01:19.421Z,6.22
2019-01-08T05:03:49.827Z,6.15
2019-01-08T05:06:20.206Z,6.07
2019-01-08T05:08:51.017Z,6.03
2019-01-08T05:11:21.728Z,6.13
2019-01-08T05:13:52.007Z,6.11
2019-01-08T05:16:22.440Z,6.07
2019-01-08T05:18:53.808Z,5.99
2019-01-08T05:21:24.269Z,6.14
2019-01-08T05:23:55.021Z,6.03
2019-01-08T05:26:25.749Z,6.02
2019-01-08T05:28:56.188Z,6.03
2019-01-08T05:31:26.590Z,6.06
2019-01-08T05:33:56.993Z,6.18
2019-01-08T05:36:27.952Z,6.18
2019-01-08T05:38:58.663Z,6.20
2019-01-08T05:41:29.149Z,6.23
2019-01-08T05:43:59.467Z,6.15
2019-01-08T05:46:30.149Z,6.20
2019-01-08T05:49:00.621Z,6.08
2019-01-08T05:51:30.903Z,5.98
2019-01-08T05:54:01.748Z,5.91
2019-01-08T05:56:32.051Z,5.83
2019-01-08T05:59:03.274Z,5.75
2019-01-08T06:01:33.894Z,5.71
2019-01-08T06:04:04.838Z,5.70
2019-01-08T06:06:35.115Z,5.70
2019-01-08T06:09:06.718Z,5.79
2019-01-08T06:11:37.402Z,5.88
2019-01-08T06:14:11.398Z,5.84
2019-01-08T06:16:41.890Z,5.81
2019-01-08T06:19:12.272Z,5.88
2019-01-08T06:21:42.641Z,5.93
2019-01-08T06:24:12.971Z,5.90
2019-01-08T06:26:44.045Z,5.96
2019-01-08T06:29:14.382Z,5.91
2019-01-08T06:31:44.657Z,5.88
2019-01-08T06:34:15.024Z,5.89
2019-01-08T06:36:45.905Z,5.90
2019-01-08T06:39:16.204Z,5.80
2019-01-08T06:41:46.580Z,5.64
2019-01-08T06:44:17.464Z,5.69
2019-01-08T06:46:47.818Z,5.60
2019-01-08T06:49:19.092Z,5.50
2019-01-08T06:51:49.464Z,5.54
2019-01-08T06:54:19.862Z,5.52
2019-01-08T06:56:50.713Z,5.65
2019-01-08T06:59:21.091Z,5.64
2019-01-08T07:01:51.539Z,5.67
2019-01-08T07:04:21.887Z,5.69
2019-01-08T07:06:52.451Z,5.72
2019-01-08T07:09:22.770Z,5.77
2019-01-08T07:11:53.175Z,5.83
2019-01-08T07:14:23.593Z,5.84
2019-01-08T07:16:54.303Z,5.88
2019-01-08T07:19:24.647Z,5.95
2019-01-08T07:21:55.201Z,6.12
2019-01-08T07:24:27.585Z,6.14
2019-01-08T07:26:57.761Z,6.16
2019-01-08T07:30:00.851Z,6.23
2019-01-08T07:32:31.329Z,6.21
2019-01-08T07:35:01.750Z,6.11
2019-01-08T07:37:32.136Z,6.17
2019-01-08T07:40:02.523Z,6.12
2019-01-08T07:42:33.073Z,6.23
2019-01-08T07:45:04.309Z,6.16
2019-01-08T07:47:34.949Z,6.16
2019-01-08T07:50:05.517Z,6.19
2019-01-08T07:52:36.456Z,6.10
2019-01-08T07:55:06.972Z,6.10
2019-01-08T07:57:37.454Z,6.08
2019-01-08T08:00:08.505Z,6.11
2019-01-08T08:02:38.897Z,6.09
2019-01-08T08:05:09.783Z,6.16
2019-01-08T08:07:40.256Z,6.15
2019-01-08T08:10:10.618Z,6.15
2019-01-08T08:12:41.460Z,6.21
2019-01-08T08:15:14.046Z,6.27
2019-01-08T08:17:44.487Z,6.25
2019-01-08T08:20:14.918Z,6.26
2019-01-08T08:22:45.847Z,6.16
2019-01-08T08:25:19.617Z,6.21
2019-01-08T08:27:54.337Z,6.06
2019-01-08T08:30:26.279Z,6.01
2019-01-08T08:32:56.999Z,6.01
2019-01-08T08:35:27.360Z,5.95
2019-01-08T08:37:57.623Z,5.99
2019-01-08T08:40:28.348Z,5.93
2019-01-08T08:42:58.669Z,5.80
2019-01-08T08:45:29.071Z,5.77
2019-01-08T08:47:59.696Z,5.72
2019-01-08T08:50:30.120Z,5.57
2019-01-08T08:53:00.587Z,5.55
2019-01-08T08:55:31.312Z,5.58
2019-01-08T08:58:01.650Z,5.64
2019-01-08T09:00:32.097Z,5.72
2019-01-08T09:03:02.467Z,5.76
2019-01-08T09:05:33.015Z,5.90
2019-01-08T09:08:03.823Z,5.82
2019-01-08T09:10:34.352Z,5.93
2019-01-08T09:13:05.744Z,5.88
2019-01-08T09:15:36.151Z,5.87
2019-01-08T09:18:06.470Z,6.03
2019-01-08T09:20:37.189Z,6.07
2019-01-08T09:23:08.637Z,6.26
2019-01-08T09:25:39.533Z,6.11
2019-01-08T09:28:09.978Z,6.19
2019-01-08T09:30:40.333Z,5.99
2019-01-08T09:33:11.107Z,6.08
2019-01-08T09:35:41.442Z,5.90
2019-01-08T09:38:11.751Z,5.98
2019-01-08T09:40:42.655Z,6.03
2019-01-08T09:43:15.661Z,5.97
2019-01-08T09:45:46.440Z,5.85
2019-01-08T09:48:17.123Z,5.89
2019-01-08T09:50:54.072Z,5.77
2019-01-08T09:53:30.406Z,6.00
2019-01-08T09:56:03.991Z,6.05
2019-01-08T09:58:37.931Z,5.96
2019-01-08T10:01:09.075Z,6.16
2019-01-08T10:03:55.260Z,6.17
2019-01-08T10:06:25.769Z,6.13
2019-01-08T10:08:56.123Z,6.18
2019-01-08T10:11:26.496Z,6.19
2019-01-08T10:13:56.928Z,6.22
2019-01-08T10:16:27.274Z,6.22
2019-01-08T10:18:57.743Z,6.28
2019-01-08T10:21:28.138Z,6.25
2019-01-08T10:23:58.661Z,6.24
2019-01-08T10:26:29.026Z,6.27
2019-01-08T10:28:59.329Z,6.38
2019-01-08T10:31:32.527Z,6.45
2019-01-08T10:34:01.785Z,6.43
2019-01-08T10:36:32.238Z,6.37
2019-01-08T10:39:02.550Z,6.47
2019-01-08T10:41:32.962Z,6.46
2019-01-08T10:44:03.337Z,6.51
2019-01-08T10:46:37.598Z,6.64
2019-01-08T10:49:06.267Z,6.73
2019-01-08T10:51:37.204Z,6.77
2019-01-08T10:54:07.702Z,7.05
2019-01-08T10:56:38.167Z,7.52
2019-01-08T10:59:09.055Z,7.54
2019-01-08T11:01:40.612Z,7.56
2019-01-08T11:04:11.270Z,7.54
2019-01-08T11:06:41.692Z,7.24
2019-01-08T11:09:13.363Z,7.04
2019-01-08T11:11:43.790Z,6.86
2019-01-08T11:14:14.185Z,6.78
2019-01-08T11:16:44.542Z,6.66
2019-01-08T11:19:15.426Z,6.58
2019-01-08T11:21:46.460Z,6.44
2019-01-08T11:24:16.897Z,6.25
2019-01-08T11:26:47.255Z,6.18
2019-01-08T11:29:17.783Z,6.06
2019-01-08T11:31:57.577Z,6.03
2019-01-08T11:34:27.981Z,5.95
2019-01-08T11:36:58.465Z,5.90
2019-01-08T11:39:28.950Z,6.06
2019-01-08T11:41:59.597Z,6.07
2019-01-08T11:44:30.029Z,6.09
2019-01-08T11:47:00.440Z,6.06
2019-01-08T11:49:30.826Z,6.18
2019-01-08T11:52:01.262Z,6.18
2019-01-08T11:54:40.896Z,6.16
2019-01-08T11:57:07.646Z,6.23
2019-01-08T11:59:38.287Z,6.20
2019-01-08T12:02:08.895Z,6.27
2019-01-08T12:04:39.789Z,6.30
2019-01-08T12:07:10.848Z,6.32
2019-01-08T12:09:41.241Z,6.40
2019-01-08T12:12:11.537Z,6.37
2019-01-08T12:14:44.083Z,6.41
2019-01-08T12:17:15.087Z,6.45
2019-01-08T12:19:45.490Z,6.52
2019-01-08T12:22:16.322Z,6.52
2019-01-08T12:24:46.822Z,6.60
2019-01-08T12:27:17.450Z,6.63
2019-01-08T12:29:47.863Z,6.66
2019-01-08T12:32:21.643Z,6.74
2019-01-08T12:34:52.241Z,6.68
2019-01-08T12:37:47.900Z,6.63
2019-01-08T12:40:18.208Z,6.61
2019-01-08T12:42:50.843Z,6.65
2019-01-08T12:45:21.162Z,6.66
2019-01-08T12:47:51.558Z,6.75
2019-01-08T12:50:22.611Z,6.71
2019-01-08T12:52:53.047Z,6.77
2019-01-08T12:55:23.396Z,6.88
2019-01-08T12:57:54.212Z,6.75
2019-01-08T13:00:24.713Z,6.85
2019-01-08T13:02:56.332Z,6.82
2019-01-08T13:05:27.295Z,6.99
2019-01-08T13:07:58.325Z,6.96
2019-01-08T13:10:29.236Z,6.98
2019-01-08T13:12:59.876Z,7.05
2019-01-08T13:15:30.834Z,7.04
2019-01-08T13:18:01.391Z,6.96
2019-01-08T13:20:32.480Z,7.03
2019-01-08T13:23:03.021Z,6.97
2019-01-08T13:25:33.552Z,6.97
2019-01-08T13:28:04.579Z,7.07
2019-01-08T13:30:35.096Z,6.99
2019-01-08T13:33:05.586Z,6.81
2019-01-08T13:35:39.078Z,6.65
2019-01-08T13:38:09.722Z,6.44
2019-01-08T13:40:41.657Z,6.31
2019-01-08T13:43:12.130Z,6.27
2019-01-08T13:45:43.212Z,6.18
2019-01-08T13:48:17.168Z,6.19
2019-01-08T13:50:47.629Z,6.27
2019-01-08T13:56:07.764Z,6.28
2019-01-08T13:58:39.466Z,6.36
2019-01-08T14:01:12.850Z,6.30
2019-01-08T14:03:43.217Z,6.32
2019-01-08T14:06:13.739Z,6.39
2019-01-08T14:08:45.286Z,6.32
2019-01-08T14:11:15.890Z,6.23
2019-01-08T14:13:46.374Z,6.13
2019-01-08T14:16:17.057Z,6.04
2019-01-08T14:18:50.191Z,6.03
2019-01-08T14:21:21.046Z,5.86
2019-01-08T14:23:52.182Z,5.74
2019-01-08T14:26:22.904Z,5.68
2019-01-08T14:28:53.493Z,5.67
2019-01-08T14:31:23.898Z,5.74
2019-01-08T14:33:54.992Z,5.73
2019-01-08T14:36:25.387Z,5.76
2019-01-08T14:38:55.743Z,5.79
2019-01-08T14:41:26.189Z,5.83
2019-01-08T14:43:58.278Z,5.83
2019-01-08T14:46:30.384Z,5.90
2019-01-08T14:49:00.840Z,5.86
2019-01-08T14:51:31.423Z,5.92
2019-01-08T14:54:04.577Z,5.98
2019-01-08T14:56:49.580Z,5.95
2019-01-08T14:59:20.145Z,6.00
2019-01-08T15:01:51.598Z,6.05
2019-01-08T15:04:22.192Z,6.17
2019-01-08T15:06:52.469Z,6.03
2019-01-08T15:09:23.305Z,6.05
2019-01-08T15:11:54.776Z,6.06
2019-01-08T15:14:25.174Z,6.09
2019-01-08T15:16:57.073Z,6.07
2019-01-08T15:19:27.420Z,6.06
2019-01-08T15:21:57.881Z,6.10
2019-01-08T15:24:28.225Z,6.11
2019-01-08T15:27:00.752Z,6.08
2019-01-08T15:29:31.097Z,6.11
2019-01-08T15:32:01.601Z,6.19
2019-01-08T15:34:32.054Z,6.14
2019-01-08T15:37:02.979Z,6.21
2019-01-08T15:39:34.365Z,6.22
2019-01-08T15:42:07.774Z,6.25
2019-01-08T15:44:39.129Z,6.28
2019-01-08T15:47:09.516Z,6.28
2019-01-08T15:49:43.441Z,6.20
2019-01-08T15:52:13.812Z,6.22
2019-01-08T15:54:44.156Z,6.28
2019-01-08T15:57:14.678Z,6.27
2019-01-08T15:59:45.006Z,6.21
2019-01-08T16:02:15.923Z,6.19
2019-01-08T16:04:46.232Z,6.16
2019-01-08T16:07:16.694Z,6.21
2019-01-08T16:09:48.812Z,6.15
2019-01-08T16:12:19.892Z,6.15
2019-01-08T16:14:50.798Z,6.18
2019-01-08T16:17:21.202Z,6.15
2019-01-08T16:19:51.570Z,6.20
2019-01-08T16:22:22.373Z,6.22
2019-01-08T16:24:52.987Z,6.19
2019-01-08T16:30:29.991Z,6.24
2019-01-08T16:33:01.594Z,6.21
2019-01-08T16:35:33.221Z,6.12
2019-01-08T16:38:03.708Z,6.00
2019-01-08T16:40:34.142Z,6.02
2019-01-08T16:43:08.839Z,5.86
2019-01-08T16:45:39.443Z,5.88
2019-01-08T16:48:11.168Z,5.90
2019-01-08T16:50:44.020Z,5.94
2019-01-08T16:53:16.453Z,5.90
2019-01-08T16:55:47.088Z,5.92
2019-01-08T16:58:18.782Z,5.94
2019-01-08T17:00:50.210Z,5.88
2019-01-08T17:03:25.583Z,5.92
2019-01-08T17:05:54.066Z,5.83
2019-01-08T17:08:26.289Z,5.88
2019-01-08T17:10:56.670Z,5.90
2019-01-08T17:13:27.622Z,5.83
2019-01-08T17:15:58.340Z,5.79
2019-01-08T17:18:28.751Z,5.69
2019-01-08T17:21:01.193Z,5.77
2019-01-08T17:23:31.602Z,5.68
2019-01-08T17:26:02.297Z,5.58
2019-01-08T17:28:32.770Z,5.67
2019-01-08T17:31:03.420Z,5.64
2019-01-08T17:33:34.340Z,5.57
2019-01-08T17:36:04.648Z,5.52
2019-01-08T17:38:36.181Z,5.56
2019-01-08T17:41:07.021Z,5.49
2019-01-08T17:43:37.488Z,5.50
2019-01-08T17:46:10.203Z,5.48
2019-01-08T17:48:41.278Z,5.44
2019-01-08T17:51:12.301Z,5.41
2019-01-08T17:53:43.295Z,5.36
2019-01-08T17:56:13.796Z,5.30
2019-01-08T17:58:46.161Z,5.15
2019-01-08T18:01:30.573Z,5.07
2019-01-08T18:04:00.925Z,4.98
2019-01-08T18:06:31.538Z,4.98
2019-01-08T18:09:02.413Z,5.03
2019-01-08T18:11:34.832Z,5.05
2019-01-08T18:14:05.361Z,5.04
2019-01-08T18:16:35.982Z,5.09
2019-01-08T18:19:07.097Z,5.13
2019-01-08T18:21:37.995Z,5.08
2019-01-08T18:24:08.376Z,5.11
2019-01-08T18:26:40.126Z,5.08
2019-01-08T18:29:12.754Z,5.03
2019-01-08T18:31:43.345Z,5.01
2019-01-08T18:34:14.107Z,5.07
2019-01-08T18:36:44.832Z,5.01
2019-01-08T18:39:15.212Z,5.10
2019-01-08T18:41:50.013Z,5.05
2019-01-08T18:44:21.119Z,5.04
2019-01-08T18:46:52.026Z,4.85
2019-01-08T18:49:24.075Z,4.77
2019-01-08T18:51:55.982Z,4.70
2019-01-08T18:54:28.188Z,4.63
2019-01-08T18:56:58.871Z,4.57
2019-01-08T18:59:29.197Z,4.50
2019-01-08T19:01:59.579Z,4.46
2019-01-08T19:04:29.922Z,4.48
2019-01-08T19:07:00.285Z,4.56
2019-01-08T19:09:41.217Z,4.51
2019-01-08T19:12:20.795Z,4.54
2019-01-08T19:14:51.961Z,4.55
2019-01-08T19:17:22.828Z,4.53
2019-01-08T19:19:53.646Z,4.60
2019-01-08T19:22:24.213Z,4.51
2019-01-08T19:24:59.713Z,4.35
2019-01-08T19:27:30.497Z,4.33
2019-01-08T19:30:00.952Z,4.24
2019-01-08T19:32:35.795Z,4.19
2019-01-08T19:35:06.241Z,4.21
2019-01-08T19:37:36.527Z,4.16
2019-01-08T19:40:07.540Z,4.18
2019-01-08T19:42:38.402Z,4.21
2019-01-08T19:45:09.429Z,4.17
2019-01-08T19:47:39.870Z,4.14
2019-01-08T19:50:14.378Z,4.14
2019-01-08T19:52:44.773Z,4.10
2019-01-08T19:55:15.064Z,4.06
2019-01-08T19:57:46.560Z,4.08
2019-01-08T20:00:17.025Z,4.03
2019-01-08T20:02:47.657Z,4.05
2019-01-08T20:05:18.697Z,4.09
2019-01-08T20:07:49.585Z,4.13
2019-01-08T20:10:20.002Z,4.12
2019-01-08T20:12:50.344Z,4.09
2019-01-08T20:15:20.771Z,4.11
2019-01-08T20:18:26.233Z,4.12
2019-01-08T20:20:56.894Z,4.13
2019-01-08T20:23:27.386Z,4.12
2019-01-08T20:25:57.836Z,4.12
2019-01-08T20:28:28.277Z,4.09
2019-01-08T20:31:00.206Z,4.08
2019-01-08T20:33:30.643Z,4.13
2019-01-08T20:36:03.372Z,4.16
2019-01-08T20:38:33.733Z,4.21
2019-01-08T20:41:04.062Z,4.18
2019-01-08T20:43:35.037Z,4.19
2019-01-08T20:46:06.572Z,4.18
2019-01-08T20:48:40.942Z,4.19
2019-01-08T20:51:12.874Z,4.22
2019-01-08T20:53:46.464Z,4.24
2019-01-08T20:56:20.905Z,4.23
2019-01-08T20:58:51.388Z,4.24
2019-01-08T21:01:22.372Z,4.16
2019-01-08T21:03:53.004Z,4.17
2019-01-08T21:06:23.354Z,4.13
2019-01-08T21:08:53.784Z,4.12
2019-01-08T21:11:24.169Z,4.08
2019-01-08T21:13:57.960Z,4.03
2019-01-08T21:16:28.828Z,3.99
2019-01-08T21:18:59.341Z,4.01
2019-01-08T21:21:29.861Z,3.92
2019-01-08T21:24:07.925Z,3.95
2019-01-08T21:26:38.387Z,3.82
2019-01-08T21:29:20.430Z,3.79
2019-01-08T21:31:50.794Z,3.69
2019-01-08T21:37:15.960Z,3.55
2019-01-08T21:39:46.264Z,3.50
2019-01-08T21:42:16.872Z,3.41
2019-01-08T21:44:47.761Z,3.39
2019-01-08T21:47:18.914Z,3.34
2019-01-08T21:49:50.053Z,3.27
2019-01-08T21:52:20.670Z,3.29
2019-01-08T21:54:51.068Z,3.23
2019-01-08T21:57:22.217Z,3.24
2019-01-08T21:59:52.642Z,3.20
2019-01-08T22:02:24.638Z,3.24
2019-01-08T22:04:55.573Z,3.26
2019-01-08T22:07:25.947Z,3.26
2019-01-08T22:09:56.893Z,3.22
2019-01-08T22:12:27.320Z,3.23
2019-01-08T22:15:00.504Z,3.21
2019-01-08T22:17:30.971Z,3.12
2019-01-08T22:20:01.781Z,3.15
2019-01-08T22:22:32.616Z,3.10
2019-01-08T22:25:02.908Z,3.06
2019-01-08T22:27:33.822Z,3.01
2019-01-08T22:30:04.762Z,2.98
2019-01-08T22:32:36.180Z,2.94
2019-01-08T22:35:06.959Z,2.82
2019-01-08T22:37:37.878Z,2.73
2019-01-08T22:40:10.209Z,2.56
2019-01-08T22:42:41.065Z,2.43
2019-01-08T22:45:11.426Z,2.36
2019-01-08T22:47:41.868Z,2.27
2019-01-08T22:50:17.076Z,2.21
2019-01-08T22:52:48.276Z,2.20
2019-01-08T22:55:19.648Z,2.17
2019-01-08T22:57:50.150Z,2.16
2019-01-08T23:00:39.184Z,2.15
2019-01-08T23:03:10.339Z,2.18
2019-01-08T23:05:41.064Z,2.23
2019-01-08T23:08:12.068Z,2.26
2019-01-08T23:10:42.552Z,2.33
2019-01-08T23:13:13.055Z,2.34
2019-01-08T23:15:44.236Z,2.39
2019-01-08T23:18:14.610Z,2.43
2019-01-08T23:20:49.140Z,2.41
2019-01-08T23:23:19.500Z,2.41
2019-01-08T23:25:49.915Z,2.41
2019-01-08T23:28:20.430Z,2.42
2019-01-08T23:30:50.866Z,2.36
2019-01-08T23:33:21.346Z,2.37
2019-01-08T23:35:52.197Z,2.36
2019-01-08T23:38:25.216Z,2.36
2019-01-08T23:40:55.535Z,2.33
2019-01-08T23:43:25.900Z,2.31
2019-01-08T23:45:56.356Z,2.25
2019-01-08T23:48:26.714Z,2.23
2019-01-08T23:50:57.823Z,2.21
2019-01-08T23:53:40.661Z,2.20
2019-01-08T23:56:11.912Z,2.16
2019-01-08T23:58:42.746Z,2.10
